Ozark Regional Airport Mountain Home US
ICAO: KBPK
IATA: WMH
Category: Medium
Scheduled Services: No

Elevation: 928 ft
TransAlt. 18000 ft.

Airport Communications:
ASOS:133.975
MEMPHIS CNTR:126.85
CTAF/UNICOM:123

KBPK Zoom In..

If you have problems with the map follow the link
https://www.worldairports.se/pages/airport.php?
ICAO=KBPK

Runways:

(A) RW 05 length 5001 ft width 75 ft
ILS 111.95 / hdg 49

(B) RW 23 length 5001 ft width 75 ft
---- / hdg 229

Location; KBPK
Day. 05 / Time. 22.53 Zulu
* Altimeter: 29.93
* Temperature: 14° c. 57.2°f.
* Wind from: 160° Speed 04 kn.
Dewpoint: 03° c.
Visibility: 10 Statute Miles.
Clouds: Overcast 11000 ft.

KBPK 052253Z AUTO 16004KT 10SM OVC110 14/03 A2993 RMK AO2 SLP134 T01440028


Wind From 160°
Speed 04 kn.

 
 
jpsmedia worldairports.se 2019   terms of use